Time;durP1;ratioP1;P1;durP2;ratioP2;P2;SDS_P1;SDS_P2;PMS_P1;PMS_P2;Temp;Humidity;BMP_temperature;BMP_pressure;BME280_temperature;BME280_humidity;BME280_pressure;Samples;Min_cycle;Max_cycle;Signal;HPM_P1;HPM_P2
2022/05/10 00:00:06;;;;;;;;;;;27.80;39.00;;;;;;5072738;28;882;-47
2022/05/10 00:02:33;;;;;;;;;;;27.80;39.10;;;;;;5072381;28;1478;-47
2022/05/10 00:05:00;;;;;;;;;;;27.80;39.10;;;;;;5072415;28;1026;-47
2022/05/10 00:07:29;;;;;;;;;;;27.80;39.00;;;;;;5072131;28;1034;-47
2022/05/10 00:09:55;;;;;;;;;;;27.90;39.00;;;;;;5072659;28;1023;-47
2022/05/10 00:12:22;;;;;;;;;;;27.90;38.90;;;;;;5073453;28;975;-47
2022/05/10 00:14:49;;;;;;;;;;;27.80;39.00;;;;;;5072529;28;1007;-47
2022/05/10 00:17:22;;;;;;;;;;;27.90;39.00;;;;;;5072443;28;997;-47
2022/05/10 00:19:48;;;;;;;;;;;27.90;39.00;;;;;;5072091;28;973;-47
2022/05/10 00:22:15;;;;;;;;;;;27.90;39.00;;;;;;5073509;28;877;-47
2022/05/10 00:24:42;;;;;;;;;;;27.90;39.00;;;;;;5074115;28;985;-47
2022/05/10 00:27:09;;;;;;;;;;;27.80;39.00;;;;;;5073724;28;999;-47
2022/05/10 00:29:35;;;;;;;;;;;27.80;39.00;;;;;;5074649;28;941;-47
2022/05/10 00:32:02;;;;;;;;;;;27.80;39.00;;;;;;5076879;28;924;-47
2022/05/10 00:34:30;;;;;;;;;;;27.80;38.90;;;;;;5076998;28;912;-47
2022/05/10 00:36:57;;;;;;;;;;;27.80;38.90;;;;;;5077204;28;987;-47
2022/05/10 00:39:24;;;;;;;;;;;27.80;38.90;;;;;;5076781;28;1981;-47
2022/05/10 00:41:55;;;;;;;;;;;27.80;39.00;;;;;;5076419;28;1155;-47
2022/05/10 00:44:25;;;;;;;;;;;27.80;38.90;;;;;;5077239;28;1036;-47
2022/05/10 00:46:57;;;;;;;;;;;27.90;39.00;;;;;;5076258;28;948;-48
2022/05/10 00:49:25;;;;;;;;;;;27.90;38.90;;;;;;5077183;28;1007;-48
2022/05/10 00:51:56;;;;;;;;;;;27.90;39.00;;;;;;5077442;28;1041;-47
2022/05/10 00:54:27;;;;;;;;;;;27.80;38.90;;;;;;5076572;28;908;-47
2022/05/10 00:56:58;;;;;;;;;;;27.80;39.00;;;;;;5076363;28;985;-47
2022/05/10 00:59:28;;;;;;;;;;;27.80;39.00;;;;;;5075491;28;1988;-47
2022/05/10 01:01:58;;;;;;;;;;;27.80;38.90;;;;;;5075577;28;1062;-48
2022/05/10 01:04:28;;;;;;;;;;;27.80;38.90;;;;;;5075219;28;968;-47
2022/05/10 01:06:58;;;;;;;;;;;27.80;38.90;;;;;;5075616;28;1014;-47
2022/05/10 01:09:28;;;;;;;;;;;27.80;38.90;;;;;;5075905;28;960;-47
2022/05/10 01:11:58;;;;;;;;;;;27.80;38.90;;;;;;5076220;28;972;-47
2022/05/10 01:14:28;;;;;;;;;;;27.80;39.00;;;;;;5075946;28;940;-47
2022/05/10 01:16:56;;;;;;;;;;;27.80;39.00;;;;;;5076504;28;948;-47
2022/05/10 01:19:23;;;;;;;;;;;27.80;39.00;;;;;;5075488;28;1975;-47
2022/05/10 01:21:54;;;;;;;;;;;27.80;39.00;;;;;;5076001;28;968;-47
2022/05/10 01:24:40;;;;;;;;;;;27.80;39.00;;;;;;5076231;28;1019;-48
2022/05/10 01:27:12;;;;;;;;;;;27.80;39.00;;;;;;5077192;28;999;-47
2022/05/10 01:29:43;;;;;;;;;;;27.80;39.00;;;;;;5076073;28;989;-47
2022/05/10 01:34:59;;;;;;;;;;;27.80;38.90;;;;;;5075099;28;600;-48
2022/05/10 01:37:27;;;;;;;;;;;27.80;38.90;;;;;;5076260;28;1781;-47
2022/05/10 01:39:56;;;;;;;;;;;27.80;38.90;;;;;;5075653;28;1913;-47
2022/05/10 01:42:25;;;;;;;;;;;27.80;39.00;;;;;;5074675;28;910;-47
2022/05/10 01:44:55;;;;;;;;;;;27.80;39.00;;;;;;5075358;28;956;-47
2022/05/10 01:47:26;;;;;;;;;;;27.80;39.00;;;;;;5076576;28;948;-47
2022/05/10 01:49:55;;;;;;;;;;;27.80;38.90;;;;;;5075551;28;1020;-48
2022/05/10 01:52:24;;;;;;;;;;;27.80;38.90;;;;;;5074726;28;996;-47
2022/05/10 01:54:59;;;;;;;;;;;27.80;38.90;;;;;;5076246;28;1003;-47
2022/05/10 01:57:26;;;;;;;;;;;27.70;38.90;;;;;;5076060;28;989;-47
2022/05/10 01:59:56;;;;;;;;;;;27.70;39.00;;;;;;5074222;28;1980;-47
2022/05/10 02:02:27;;;;;;;;;;;27.70;39.00;;;;;;5075218;28;992;-46
2022/05/10 02:04:55;;;;;;;;;;;27.80;39.00;;;;;;5075167;28;881;-45
2022/05/10 02:07:24;;;;;;;;;;;27.80;39.00;;;;;;5076039;28;1018;-45
2022/05/10 02:09:53;;;;;;;;;;;27.70;38.80;;;;;;5075827;28;932;-45
2022/05/10 02:12:22;;;;;;;;;;;27.80;39.00;;;;;;5075189;28;1017;-45
2022/05/10 02:14:51;;;;;;;;;;;27.80;38.90;;;;;;5076322;28;944;-44
2022/05/10 02:17:21;;;;;;;;;;;27.70;38.90;;;;;;5075804;28;1007;-45
2022/05/10 02:19:50;;;;;;;;;;;27.70;38.90;;;;;;5077054;28;1917;-46
2022/05/10 02:22:20;;;;;;;;;;;27.80;38.90;;;;;;5076457;28;1024;-43
2022/05/10 02:24:50;;;;;;;;;;;27.70;38.80;;;;;;5076256;28;1046;-45
2022/05/10 02:27:19;;;;;;;;;;;27.70;38.80;;;;;;5076593;28;999;-44
2022/05/10 02:29:47;;;;;;;;;;;27.70;39.00;;;;;;5076499;28;932;-45
2022/05/10 02:35:03;;;;;;;;;;;27.70;39.00;;;;;;5074614;28;594;-45
2022/05/10 02:37:30;;;;;;;;;;;27.70;39.00;;;;;;5074902;28;1009;-45
2022/05/10 02:39:57;;;;;;;;;;;27.70;38.80;;;;;;5074709;28;1959;-44
2022/05/10 02:42:24;;;;;;;;;;;27.70;38.80;;;;;;5075724;28;1054;-45
2022/05/10 02:44:54;;;;;;;;;;;27.70;38.80;;;;;;5076078;28;1018;-45
2022/05/10 02:47:28;;;;;;;;;;;27.70;38.90;;;;;;5075570;28;993;-45
2022/05/10 02:49:55;;;;;;;;;;;27.70;38.90;;;;;;5078110;28;1000;-45
2022/05/10 02:52:23;;;;;;;;;;;27.70;38.90;;;;;;5075343;28;1004;-45
2022/05/10 02:54:53;;;;;;;;;;;27.70;38.90;;;;;;5074981;28;1021;-45
2022/05/10 02:57:20;;;;;;;;;;;27.70;38.90;;;;;;5074690;28;940;-45
2022/05/10 02:59:47;;;;;;;;;;;27.70;38.80;;;;;;5075088;28;1902;-45
2022/05/10 03:02:16;;;;;;;;;;;27.70;39.00;;;;;;5075240;28;1025;-45
2022/05/10 03:04:43;;;;;;;;;;;27.70;38.80;;;;;;5075758;28;997;-45
2022/05/10 03:07:10;;;;;;;;;;;27.70;38.80;;;;;;5075567;28;1018;-46
2022/05/10 03:09:38;;;;;;;;;;;27.70;38.80;;;;;;5075750;28;1008;-46
2022/05/10 03:12:06;;;;;;;;;;;27.70;38.80;;;;;;5075249;28;944;-45
2022/05/10 03:14:33;;;;;;;;;;;27.70;38.80;;;;;;5075901;28;935;-45
2022/05/10 03:16:59;;;;;;;;;;;27.70;38.90;;;;;;5074528;28;977;-45
2022/05/10 03:19:26;;;;;;;;;;;27.70;38.90;;;;;;5074954;28;1975;-45
2022/05/10 03:21:53;;;;;;;;;;;27.70;39.00;;;;;;5075236;28;1005;-45
2022/05/10 03:24:20;;;;;;;;;;;27.70;38.90;;;;;;5074443;28;1001;-45
2022/05/10 03:26:49;;;;;;;;;;;27.70;38.90;;;;;;5074370;28;1006;-45
2022/05/10 03:29:16;;;;;;;;;;;27.70;38.90;;;;;;5074563;28;1011;-45
2022/05/10 03:31:43;;;;;;;;;;;27.70;38.80;;;;;;5075350;28;975;-45
2022/05/10 03:36:54;;;;;;;;;;;27.70;38.90;;;;;;5074929;28;885;-45
2022/05/10 03:39:21;;;;;;;;;;;27.70;38.90;;;;;;5074566;28;1986;-46
2022/05/10 03:41:49;;;;;;;;;;;27.70;38.80;;;;;;5072952;28;1147;-45
2022/05/10 03:44:16;;;;;;;;;;;27.70;38.80;;;;;;5072911;28;992;-45
2022/05/10 03:46:44;;;;;;;;;;;27.70;38.80;;;;;;5074381;28;932;-45
2022/05/10 03:49:11;;;;;;;;;;;27.70;38.90;;;;;;5074832;28;1003;-46
2022/05/10 03:51:38;;;;;;;;;;;27.70;38.80;;;;;;5073799;28;945;-45
2022/05/10 03:54:05;;;;;;;;;;;27.70;38.80;;;;;;5074627;28;993;-45
2022/05/10 03:56:33;;;;;;;;;;;27.70;38.90;;;;;;5074971;28;985;-45
2022/05/10 03:59:02;;;;;;;;;;;27.60;38.90;;;;;;5075563;28;1879;-45
2022/05/10 04:01:28;;;;;;;;;;;27.70;38.80;;;;;;5073798;28;1012;-46
2022/05/10 04:03:55;;;;;;;;;;;27.70;38.80;;;;;;5073893;28;1073;-45
2022/05/10 04:06:22;;;;;;;;;;;27.70;38.80;;;;;;5074410;28;1035;-45
2022/05/10 04:08:49;;;;;;;;;;;27.70;38.80;;;;;;5074062;28;1111;-45
2022/05/10 04:11:16;;;;;;;;;;;27.70;38.70;;;;;;5073581;28;1004;-45
2022/05/10 04:13:43;;;;;;;;;;;27.70;38.80;;;;;;5074126;28;1028;-45
2022/05/10 04:16:11;;;;;;;;;;;27.70;38.80;;;;;;5073945;28;943;-44
2022/05/10 04:18:38;;;;;;;;;;;27.70;38.80;;;;;;5072564;28;1973;-44
2022/05/10 04:21:05;;;;;;;;;;;27.70;38.80;;;;;;5072333;28;1002;-45
2022/05/10 04:23:32;;;;;;;;;;;27.70;38.80;;;;;;5073267;28;1042;-45
2022/05/10 04:26:02;;;;;;;;;;;27.70;38.80;;;;;;5071042;28;1027;-45
2022/05/10 04:28:29;;;;;;;;;;;27.70;38.80;;;;;;5071706;28;985;-45
2022/05/10 04:30:56;;;;;;;;;;;27.60;38.90;;;;;;5071665;28;1029;-45
2022/05/10 04:33:24;;;;;;;;;;;27.60;38.90;;;;;;5071807;28;997;-45
2022/05/10 04:35:51;;;;;;;;;;;27.60;38.90;;;;;;5070266;28;944;-45
2022/05/10 04:38:18;;;;;;;;;;;27.60;38.80;;;;;;5070654;28;997;-45
2022/05/10 04:43:29;;;;;;;;;;;27.70;38.90;;;;;;5070835;28;913;-45
2022/05/10 04:45:56;;;;;;;;;;;27.60;38.90;;;;;;5070697;28;1016;-45
2022/05/10 04:48:24;;;;;;;;;;;27.60;38.80;;;;;;5071707;28;1026;-45
2022/05/10 04:50:51;;;;;;;;;;;27.60;38.80;;;;;;5071038;28;910;-45
2022/05/10 04:53:18;;;;;;;;;;;27.60;38.80;;;;;;5069129;28;1015;-45
2022/05/10 04:55:44;;;;;;;;;;;27.60;38.80;;;;;;5069428;28;984;-45
2022/05/10 04:58:13;;;;;;;;;;;27.60;38.80;;;;;;5070479;28;865;-45
2022/05/10 05:00:40;;;;;;;;;;;27.60;38.90;;;;;;5069652;28;1975;-45
2022/05/10 05:03:06;;;;;;;;;;;27.60;38.80;;;;;;5070886;28;874;-45
2022/05/10 05:05:34;;;;;;;;;;;27.60;38.90;;;;;;5067745;28;931;-45
2022/05/10 05:08:01;;;;;;;;;;;27.60;38.90;;;;;;5066355;28;1005;-45
2022/05/10 05:10:28;;;;;;;;;;;27.60;38.90;;;;;;5066345;28;948;-45
2022/05/10 05:12:55;;;;;;;;;;;27.60;39.00;;;;;;5066143;28;916;-44
2022/05/10 05:15:21;;;;;;;;;;;27.60;39.00;;;;;;5066175;28;1016;-44
2022/05/10 05:17:48;;;;;;;;;;;27.60;39.00;;;;;;5066243;28;1017;-45
2022/05/10 05:20:15;;;;;;;;;;;27.60;38.90;;;;;;5067628;28;1976;-45
2022/05/10 05:22:43;;;;;;;;;;;27.60;38.90;;;;;;5066614;28;869;-45
2022/05/10 05:25:10;;;;;;;;;;;27.60;38.80;;;;;;5067045;28;1888;-44
2022/05/10 05:27:36;;;;;;;;;;;27.60;38.90;;;;;;5066898;28;1147;-45
2022/05/10 05:30:03;;;;;;;;;;;27.60;39.00;;;;;;5067098;28;928;-45
2022/05/10 05:32:31;;;;;;;;;;;27.60;38.90;;;;;;5065429;28;1052;-45
2022/05/10 05:34:58;;;;;;;;;;;27.60;38.90;;;;;;5066508;28;1008;-45
2022/05/10 05:37:35;;;;;;;;;;;27.50;39.10;;;;;;5068178;28;1058;-45
2022/05/10 05:40:05;;;;;;;;;;;27.50;39.10;;;;;;5067280;28;1906;-45
2022/05/10 05:42:32;;;;;;;;;;;27.50;39.10;;;;;;5067929;28;869;-46
2022/05/10 05:44:59;;;;;;;;;;;27.50;39.10;;;;;;5066859;28;908;-45
2022/05/10 05:47:26;;;;;;;;;;;27.50;39.30;;;;;;5067536;28;1056;-45
2022/05/10 05:49:52;;;;;;;;;;;27.50;39.40;;;;;;5069223;28;992;-45
2022/05/10 05:52:21;;;;;;;;;;;27.50;39.40;;;;;;5070303;28;1009;-45
2022/05/10 05:54:49;;;;;;;;;;;27.50;39.30;;;;;;5070678;28;980;-45
2022/05/10 05:57:17;;;;;;;;;;;27.50;39.20;;;;;;5069449;28;904;-45
2022/05/10 05:59:44;;;;;;;;;;;27.50;39.30;;;;;;5072604;28;1905;-45
2022/05/10 06:02:12;;;;;;;;;;;27.50;39.30;;;;;;5071358;28;908;-47
2022/05/10 06:04:38;;;;;;;;;;;27.60;39.10;;;;;;5070209;28;920;-47
2022/05/10 06:07:06;;;;;;;;;;;27.60;39.30;;;;;;5068454;28;870;-47
2022/05/10 06:09:32;;;;;;;;;;;27.70;39.40;;;;;;5068220;28;921;-47
2022/05/10 06:11:59;;;;;;;;;;;27.70;39.10;;;;;;5068560;28;1849;-47
2022/05/10 06:14:27;;;;;;;;;;;27.70;39.10;;;;;;5070984;28;999;-45
2022/05/10 06:16:55;;;;;;;;;;;27.70;39.30;;;;;;5068802;28;1017;-45
2022/05/10 06:19:22;;;;;;;;;;;27.70;39.30;;;;;;5070118;28;1910;-44
2022/05/10 06:21:49;;;;;;;;;;;27.60;39.60;;;;;;5071056;28;985;-44
2022/05/10 06:24:15;;;;;;;;;;;27.60;39.60;;;;;;5071328;28;956;-45
2022/05/10 06:26:42;;;;;;;;;;;27.60;39.80;;;;;;5069378;28;1056;-44
2022/05/10 06:29:09;;;;;;;;;;;27.60;39.80;;;;;;5067610;28;726;-43
2022/05/10 06:31:40;;;;;;;;;;;27.50;39.70;;;;;;5065723;28;869;-44
2022/05/10 06:34:06;;;;;;;;;;;27.60;39.90;;;;;;5068806;28;941;-46
2022/05/10 06:36:33;;;;;;;;;;;27.60;39.70;;;;;;5068889;28;826;-46
2022/05/10 06:38:59;;;;;;;;;;;27.50;40.00;;;;;;5067676;28;1084;-46
2022/05/10 06:41:25;;;;;;;;;;;27.50;40.00;;;;;;5066937;28;1902;-46
2022/05/10 06:43:52;;;;;;;;;;;27.50;40.00;;;;;;5069215;28;1096;-47
2022/05/10 06:46:21;;;;;;;;;;;27.50;39.90;;;;;;5068568;28;1047;-46
2022/05/10 06:48:49;;;;;;;;;;;27.50;39.80;;;;;;5067190;28;1085;-46
2022/05/10 06:51:17;;;;;;;;;;;27.50;40.00;;;;;;5068144;28;947;-46
2022/05/10 06:53:44;;;;;;;;;;;27.50;40.00;;;;;;5067896;28;897;-47
2022/05/10 06:56:11;;;;;;;;;;;27.50;40.10;;;;;;5067739;28;984;-47
2022/05/10 06:58:38;;;;;;;;;;;27.50;40.00;;;;;;5065880;28;983;-46
2022/05/10 07:01:10;;;;;;;;;;;27.60;40.00;;;;;;5069128;28;1981;-46
2022/05/10 07:03:37;;;;;;;;;;;27.60;40.00;;;;;;5067776;28;1006;-46
2022/05/10 07:06:06;;;;;;;;;;;27.60;40.00;;;;;;5064955;28;1754;-46
2022/05/10 07:08:33;;;;;;;;;;;27.60;39.90;;;;;;5065090;28;976;-46
2022/05/10 07:11:00;;;;;;;;;;;27.60;39.90;;;;;;5066692;28;996;-47
2022/05/10 07:13:28;;;;;;;;;;;27.60;39.80;;;;;;5066927;28;951;-47
2022/05/10 07:15:55;;;;;;;;;;;27.60;39.80;;;;;;5064451;28;1130;-46
2022/05/10 07:18:22;;;;;;;;;;;27.60;39.80;;;;;;5064223;28;900;-46
2022/05/10 07:20:50;;;;;;;;;;;27.70;39.80;;;;;;5067160;28;1909;-46
2022/05/10 07:23:21;;;;;;;;;;;27.70;39.60;;;;;;5065951;28;933;-46
2022/05/10 07:25:48;;;;;;;;;;;27.70;39.50;;;;;;5065459;28;941;-47
2022/05/10 07:28:15;;;;;;;;;;;27.70;39.50;;;;;;5064186;28;901;-47
2022/05/10 07:30:41;;;;;;;;;;;27.70;39.50;;;;;;5066810;28;983;-46
2022/05/10 07:33:08;;;;;;;;;;;27.70;39.50;;;;;;5064506;28;1264;-46
2022/05/10 07:38:17;;;;;;;;;;;27.70;39.60;;;;;;5043962;28;1169;-44
2022/05/10 07:40:47;;;;;;;;;;;27.60;39.60;;;;;;5065635;28;1985;-45
2022/05/10 07:43:13;;;;;;;;;;;27.60;39.50;;;;;;5067361;28;1000;-44
2022/05/10 07:45:41;;;;;;;;;;;27.60;39.60;;;;;;5065820;28;999;-46
2022/05/10 07:48:07;;;;;;;;;;;27.60;39.70;;;;;;5066384;28;1013;-44
2022/05/10 07:50:34;;;;;;;;;;;27.60;39.70;;;;;;5066701;28;984;-46
2022/05/10 07:53:06;;;;;;;;;;;27.50;39.70;;;;;;5066041;28;1063;-44
2022/05/10 07:55:32;;;;;;;;;;;27.60;39.80;;;;;;5065128;28;1016;-44
2022/05/10 07:58:01;;;;;;;;;;;27.60;39.60;;;;;;5066261;28;976;-42
2022/05/10 08:00:28;;;;;;;;;;;27.50;39.70;;;;;;5065074;28;1980;-43
2022/05/10 08:02:54;;;;;;;;;;;27.50;39.70;;;;;;5061159;28;985;-42
2022/05/10 08:05:26;;;;;;;;;;;27.50;39.60;;;;;;5066899;28;1890;-44
2022/05/10 08:07:52;;;;;;;;;;;27.50;40.80;;;;;;5066449;28;1047;-46
2022/05/10 08:10:20;;;;;;;;;;;27.50;39.60;;;;;;5064656;28;1016;-46
2022/05/10 08:12:47;;;;;;;;;;;27.60;39.70;;;;;;5066636;28;1254;-46
2022/05/10 08:15:16;;;;;;;;;;;27.60;39.70;;;;;;5066652;28;826;-44
2022/05/10 08:17:42;;;;;;;;;;;27.50;39.80;;;;;;5067203;28;1010;-43
2022/05/10 08:20:10;;;;;;;;;;;27.60;39.90;;;;;;5068455;28;1989;-46
2022/05/10 08:22:37;;;;;;;;;;;27.50;39.80;;;;;;5063981;28;861;-46
2022/05/10 08:25:04;;;;;;;;;;;27.50;39.90;;;;;;5065404;28;1565;-46
2022/05/10 08:27:30;;;;;;;;;;;27.50;40.00;;;;;;5066182;28;1014;-46
2022/05/10 08:29:57;;;;;;;;;;;27.40;39.90;;;;;;5065502;28;1000;-44
2022/05/10 08:32:25;;;;;;;;;;;27.40;39.90;;;;;;5063632;28;928;-44
2022/05/10 08:34:52;;;;;;;;;;;27.40;40.00;;;;;;5066800;28;940;-44
2022/05/10 08:37:19;;;;;;;;;;;27.40;40.00;;;;;;5067625;28;1008;-44
2022/05/10 08:39:46;;;;;;;;;;;27.40;40.00;;;;;;5066273;28;1067;-44
2022/05/10 08:42:18;;;;;;;;;;;27.40;40.00;;;;;;5066265;28;1975;-43
2022/05/10 08:44:49;;;;;;;;;;;27.40;40.10;;;;;;5065621;28;849;-47
2022/05/10 08:47:15;;;;;;;;;;;27.40;39.90;;;;;;5064951;28;1038;-43
2022/05/10 08:49:46;;;;;;;;;;;27.40;39.90;;;;;;5064567;28;1806;-44
2022/05/10 08:52:14;;;;;;;;;;;27.40;40.00;;;;;;5069111;28;1085;-45
2022/05/10 08:54:42;;;;;;;;;;;27.40;40.00;;;;;;5070055;28;937;-44
2022/05/10 08:57:12;;;;;;;;;;;27.40;39.90;;;;;;5069392;28;978;-43
2022/05/10 08:59:43;;;;;;;;;;;27.40;40.00;;;;;;5070720;28;1019;-44
2022/05/10 09:02:12;;;;;;;;;;;27.40;39.90;;;;;;5070993;28;1893;-44
2022/05/10 09:04:46;;;;;;;;;;;27.40;39.90;;;;;;5069653;28;945;-44
2022/05/10 09:07:18;;;;;;;;;;;27.50;39.90;;;;;;5069215;28;1029;-42
2022/05/10 09:09:51;;;;;;;;;;;27.50;39.90;;;;;;5068792;28;924;-44
2022/05/10 09:12:20;;;;;;;;;;;27.50;39.90;;;;;;5068077;28;997;-44
2022/05/10 09:14:49;;;;;;;;;;;27.40;39.80;;;;;;5068803;28;818;-43
2022/05/10 09:17:16;;;;;;;;;;;27.40;39.80;;;;;;5065316;28;878;-44
2022/05/10 09:19:45;;;;;;;;;;;27.50;39.90;;;;;;5067226;28;905;-44
2022/05/10 09:22:18;;;;;;;;;;;27.40;39.80;;;;;;5065032;28;1983;-42
2022/05/10 09:24:48;;;;;;;;;;;27.50;40.00;;;;;;5066969;28;1006;-44
2022/05/10 09:27:15;;;;;;;;;;;27.50;39.90;;;;;;5066806;28;920;-43
2022/05/10 09:29:44;;;;;;;;;;;27.50;39.90;;;;;;5067032;28;952;-42
2022/05/10 09:34:59;;;;;;;;;;;27.50;39.80;;;;;;5067103;28;592;-42
2022/05/10 09:37:28;;;;;;;;;;;27.50;40.40;;;;;;5066746;28;980;-44
2022/05/10 09:40:04;;;;;;;;;;;27.50;39.80;;;;;;5066604;28;1080;-44
2022/05/10 09:42:33;;;;;;;;;;;27.50;39.80;;;;;;5068521;28;1976;-44
2022/05/10 09:45:01;;;;;;;;;;;27.50;39.90;;;;;;5068439;28;1036;-45
2022/05/10 09:47:28;;;;;;;;;;;27.50;39.80;;;;;;5069813;28;1094;-44
2022/05/10 09:49:55;;;;;;;;;;;27.50;39.80;;;;;;5069820;28;853;-44
2022/05/10 09:52:24;;;;;;;;;;;27.50;39.80;;;;;;5068777;28;987;-44
2022/05/10 09:54:53;;;;;;;;;;;27.60;40.00;;;;;;5067579;28;1034;-44
2022/05/10 09:57:34;;;;;;;;;;;27.60;40.00;;;;;;5067382;28;934;-43
2022/05/10 10:00:01;;;;;;;;;;;27.50;40.00;;;;;;5067293;28;973;-44
2022/05/10 10:02:29;;;;;;;;;;;27.50;40.00;;;;;;5065165;28;1988;-44
2022/05/10 10:04:56;;;;;;;;;;;27.60;40.00;;;;;;5066313;28;1016;-43
2022/05/10 10:07:25;;;;;;;;;;;27.60;40.00;;;;;;5066458;28;1020;-43
2022/05/10 10:09:53;;;;;;;;;;;27.60;40.00;;;;;;5065661;28;937;-44
2022/05/10 10:12:29;;;;;;;;;;;27.60;40.00;;;;;;5066258;28;968;-43
2022/05/10 10:14:56;;;;;;;;;;;27.60;40.00;;;;;;5063819;28;858;-43
2022/05/10 10:17:25;;;;;;;;;;;27.60;40.00;;;;;;5064819;28;1022;-44
2022/05/10 10:19:54;;;;;;;;;;;27.60;39.90;;;;;;5065921;28;877;-44
2022/05/10 10:22:23;;;;;;;;;;;27.70;40.00;;;;;;5066392;28;1906;-44
2022/05/10 10:24:53;;;;;;;;;;;27.70;39.90;;;;;;5068933;28;995;-44
2022/05/10 10:27:22;;;;;;;;;;;27.70;39.90;;;;;;5068584;28;1018;-44
2022/05/10 10:29:52;;;;;;;;;;;27.60;39.90;;;;;;5066684;28;935;-44
2022/05/10 10:32:21;;;;;;;;;;;27.60;39.90;;;;;;5068442;28;940;-42
2022/05/10 10:34:51;;;;;;;;;;;27.60;40.00;;;;;;5067886;28;889;-43
2022/05/10 10:37:23;;;;;;;;;;;27.60;40.10;;;;;;5067358;28;1016;-44
2022/05/10 10:39:52;;;;;;;;;;;27.60;40.00;;;;;;5065596;28;1182;-44
2022/05/10 10:42:24;;;;;;;;;;;27.50;40.00;;;;;;5067772;28;1910;-44
2022/05/10 10:44:54;;;;;;;;;;;27.60;40.10;;;;;;5064866;28;1019;-46
2022/05/10 10:47:22;;;;;;;;;;;27.50;40.10;;;;;;5063265;28;924;-44
2022/05/10 10:49:52;;;;;;;;;;;27.60;40.10;;;;;;5064296;28;888;-43
2022/05/10 10:52:19;;;;;;;;;;;27.60;40.10;;;;;;5061517;28;956;-44
2022/05/10 10:54:46;;;;;;;;;;;27.60;40.10;;;;;;5060359;28;921;-44
2022/05/10 10:57:38;;;;;;;;;;;27.60;40.10;;;;;;5060837;28;925;-44
2022/05/10 11:00:07;;;;;;;;;;;27.60;40.10;;;;;;5060600;28;886;-44
2022/05/10 11:02:52;;;;;;;;;;;27.60;40.10;;;;;;5060732;28;1913;-44
2022/05/10 11:05:32;;;;;;;;;;;27.60;40.10;;;;;;5066183;28;838;-44
2022/05/10 11:08:02;;;;;;;;;;;27.60;40.10;;;;;;5063167;28;929;-44
2022/05/10 11:10:39;;;;;;;;;;;27.60;40.00;;;;;;5063888;28;882;-43
2022/05/10 11:13:17;;;;;;;;;;;27.70;40.00;;;;;;5066029;28;868;-43
2022/05/10 11:15:47;;;;;;;;;;;27.70;40.10;;;;;;5065149;28;1009;-45
2022/05/10 11:18:24;;;;;;;;;;;27.70;40.00;;;;;;5063176;28;1008;-44
2022/05/10 11:20:55;;;;;;;;;;;27.70;40.00;;;;;;5064719;28;1986;-44
2022/05/10 11:23:27;;;;;;;;;;;27.70;40.00;;;;;;5064509;28;1048;-44
2022/05/10 11:26:11;;;;;;;;;;;27.70;40.00;;;;;;5066147;28;647;-44
2022/05/10 11:28:50;;;;;;;;;;;27.70;39.90;;;;;;5064414;28;996;-44
2022/05/10 11:31:20;;;;;;;;;;;27.70;40.00;;;;;;5060648;28;1014;-44
2022/05/10 11:33:52;;;;;;;;;;;27.70;40.00;;;;;;5062593;28;1014;-44
2022/05/10 11:36:24;;;;;;;;;;;27.70;40.00;;;;;;5065264;28;698;-44
2022/05/10 11:39:10;;;;;;;;;;;27.70;40.00;;;;;;5064719;28;1224;-44
2022/05/10 11:41:38;;;;;;;;;;;27.70;40.00;;;;;;5065115;28;1914;-46
2022/05/10 11:44:17;;;;;;;;;;;27.70;39.90;;;;;;5066507;28;901;-44
2022/05/10 11:46:52;;;;;;;;;;;27.70;39.90;;;;;;5064092;28;845;-43
2022/05/10 11:49:34;;;;;;;;;;;27.70;40.00;;;;;;5065851;28;1015;-44
2022/05/10 11:52:34;;;;;;;;;;;27.80;40.00;;;;;;5067542;28;933;-43
2022/05/10 11:55:16;;;;;;;;;;;27.80;39.90;;;;;;5064530;28;993;-44
2022/05/10 11:57:43;;;;;;;;;;;27.80;40.00;;;;;;5064064;28;1618;-43
2022/05/10 12:00:29;;;;;;;;;;;27.80;40.00;;;;;;5064970;28;861;-44
2022/05/10 12:02:57;;;;;;;;;;;27.80;40.00;;;;;;5062972;28;1910;-44
2022/05/10 12:05:28;;;;;;;;;;;27.80;40.00;;;;;;5064088;28;912;-44
2022/05/10 12:07:55;;;;;;;;;;;27.80;40.00;;;;;;5063962;28;1009;-44
2022/05/10 12:10:30;;;;;;;;;;;27.80;40.00;;;;;;5064647;28;2922;-42
2022/05/10 12:12:58;;;;;;;;;;;27.80;40.00;;;;;;5064453;28;1014;-45
2022/05/10 12:21:22;;;;;;;;;;;27.80;40.10;;;;;;5041033;28;1111;-45
2022/05/10 12:24:02;;;;;;;;;;;27.80;40.00;;;;;;5064329;28;1053;-44
2022/05/10 12:26:35;;;;;;;;;;;27.80;40.10;;;;;;5060927;28;2162;-43
2022/05/10 12:29:02;;;;;;;;;;;27.80;40.00;;;;;;5067433;28;893;-44
2022/05/10 12:31:53;;;;;;;;;;;27.80;39.90;;;;;;5070064;28;981;-43
2022/05/10 12:34:37;;;;;;;;;;;27.90;40.00;;;;;;5070643;28;980;-44
2022/05/10 12:37:24;;;;;;;;;;;27.90;40.00;;;;;;5057682;28;1069;-44
2022/05/10 12:39:54;;;;;;;;;;;27.90;39.90;;;;;;5066751;28;1450;-42
2022/05/10 12:42:25;;;;;;;;;;;27.80;39.90;;;;;;5068934;28;1982;-45
2022/05/10 12:44:57;;;;;;;;;;;27.90;40.00;;;;;;5069355;28;996;-43
2022/05/10 12:47:40;;;;;;;;;;;27.90;39.90;;;;;;5072021;28;1103;-43
2022/05/10 12:50:16;;;;;;;;;;;27.90;39.90;;;;;;5068808;28;1809;-44
2022/05/10 12:52:47;;;;;;;;;;;27.90;39.80;;;;;;5066665;28;881;-44
2022/05/10 12:55:19;;;;;;;;;;;27.90;39.80;;;;;;5065776;28;1030;-44
2022/05/10 12:57:47;;;;;;;;;;;27.90;39.80;;;;;;5068003;28;1011;-43
2022/05/10 13:00:19;;;;;;;;;;;27.90;39.80;;;;;;5063741;28;982;-43
2022/05/10 13:02:50;;;;;;;;;;;28.00;39.80;;;;;;5063577;28;1906;-44
2022/05/10 13:05:19;;;;;;;;;;;28.00;39.80;;;;;;5068543;28;650;-44
2022/05/10 13:07:54;;;;;;;;;;;28.00;39.80;;;;;;5067631;28;968;-44
2022/05/10 13:10:23;;;;;;;;;;;28.00;39.80;;;;;;5068687;28;850;-45
2022/05/10 13:12:52;;;;;;;;;;;28.00;39.70;;;;;;5070238;28;997;-44
2022/05/10 13:15:21;;;;;;;;;;;28.00;39.70;;;;;;5069421;28;849;-43
2022/05/10 13:17:49;;;;;;;;;;;28.00;39.80;;;;;;5070296;28;1196;-43
2022/05/10 13:20:20;;;;;;;;;;;28.10;39.80;;;;;;5068415;28;985;-43
2022/05/10 13:22:49;;;;;;;;;;;28.10;39.70;;;;;;5070208;28;1909;-43
2022/05/10 13:25:16;;;;;;;;;;;28.10;39.80;;;;;;5068931;28;980;-44
2022/05/10 13:27:45;;;;;;;;;;;28.10;39.80;;;;;;5069515;28;997;-43
2022/05/10 13:30:15;;;;;;;;;;;28.10;39.70;;;;;;5067837;28;997;-45
2022/05/10 13:32:44;;;;;;;;;;;28.10;39.70;;;;;;5069052;28;1367;-44
2022/05/10 13:35:13;;;;;;;;;;;28.10;39.70;;;;;;5068779;28;919;-42
2022/05/10 13:37:42;;;;;;;;;;;28.10;39.70;;;;;;5067946;28;988;-44
2022/05/10 13:40:12;;;;;;;;;;;28.10;39.70;;;;;;5069021;28;996;-43
2022/05/10 13:42:40;;;;;;;;;;;28.10;39.70;;;;;;5066888;28;1894;-44
2022/05/10 13:45:09;;;;;;;;;;;28.00;39.70;;;;;;5068430;28;936;-44
2022/05/10 13:47:36;;;;;;;;;;;28.10;39.80;;;;;;5066446;28;993;-42
2022/05/10 13:50:03;;;;;;;;;;;28.10;39.70;;;;;;5065849;28;873;-44
2022/05/10 13:52:33;;;;;;;;;;;28.10;39.70;;;;;;5066656;28;1036;-47
2022/05/10 13:55:01;;;;;;;;;;;28.10;39.70;;;;;;5067018;28;908;-44
2022/05/10 13:57:29;;;;;;;;;;;28.10;39.70;;;;;;5064300;28;909;-43
2022/05/10 13:59:57;;;;;;;;;;;28.10;39.70;;;;;;5062589;28;951;-42
2022/05/10 14:02:26;;;;;;;;;;;28.20;39.80;;;;;;5067059;28;1906;-44
2022/05/10 14:04:54;;;;;;;;;;;28.10;39.60;;;;;;5068650;28;1007;-44
2022/05/10 14:07:25;;;;;;;;;;;28.20;39.70;;;;;;5068792;28;979;-44
2022/05/10 14:09:53;;;;;;;;;;;28.20;39.60;;;;;;5066655;28;964;-45
2022/05/10 14:12:23;;;;;;;;;;;28.20;39.70;;;;;;5067359;28;945;-44
2022/05/10 14:14:51;;;;;;;;;;;28.20;39.60;;;;;;5068825;28;1008;-44
2022/05/10 14:17:18;;;;;;;;;;;28.20;39.70;;;;;;5068608;28;1393;-44
2022/05/10 14:19:47;;;;;;;;;;;28.20;39.70;;;;;;5069898;28;908;-43
2022/05/10 14:22:16;;;;;;;;;;;28.10;39.70;;;;;;5069716;28;1919;-44
2022/05/10 14:24:45;;;;;;;;;;;28.20;39.70;;;;;;5069155;28;854;-44
2022/05/10 14:27:13;;;;;;;;;;;28.20;39.70;;;;;;5067241;28;1016;-45
2022/05/10 14:29:43;;;;;;;;;;;28.20;39.60;;;;;;5065799;28;932;-44
2022/05/10 14:32:11;;;;;;;;;;;28.30;39.70;;;;;;5065044;28;948;-44
2022/05/10 14:34:50;;;;;;;;;;;28.20;39.70;;;;;;5064947;28;834;-44
2022/05/10 14:37:18;;;;;;;;;;;28.20;39.70;;;;;;5063884;28;967;-46
2022/05/10 14:39:45;;;;;;;;;;;28.30;39.70;;;;;;5065455;28;1234;-47
2022/05/10 14:42:22;;;;;;;;;;;28.30;39.70;;;;;;5060896;28;2200;-46
2022/05/10 14:44:49;;;;;;;;;;;28.30;39.70;;;;;;5065407;28;869;-47
2022/05/10 14:47:17;;;;;;;;;;;28.30;39.70;;;;;;5067261;28;1299;-46
2022/05/10 14:49:46;;;;;;;;;;;28.30;39.70;;;;;;5068674;28;889;-46
2022/05/10 14:55:29;;;;;;;;;;;28.30;39.70;;;;;;5147284;27;1274;-37
2022/05/10 14:57:58;;;;;;;;;;;28.30;39.60;;;;;;5146730;27;1014;-36
2022/05/10 15:00:32;;;;;;;;;;;28.40;39.60;;;;;;5140570;27;1110;-36
2022/05/10 15:03:06;;;;;;;;;;;28.30;39.60;;;;;;5144881;27;1012;-36
2022/05/10 15:05:33;;;;;;;;;;;28.40;39.70;;;;;;5145348;27;1474;-37
2022/05/10 15:08:00;;;;;;;;;;;28.40;39.70;;;;;;5144856;27;954;-37
2022/05/10 15:10:28;;;;;;;;;;;28.40;39.60;;;;;;5143982;27;1031;-36
2022/05/10 15:13:04;;;;;;;;;;;28.40;39.60;;;;;;5144533;27;1905;-36